createdAt,value
2023-03-24T00:01:07.534Z,8.13
2023-03-24T00:03:34.453Z,7.32
2023-03-24T00:06:05.018Z,6.22
2023-03-24T00:08:36.654Z,8.98
2023-03-24T00:11:09.083Z,6.43
2023-03-24T00:13:39.698Z,6.63
2023-03-24T00:16:13.339Z,5.80
2023-03-24T00:18:40.433Z,7.13
2023-03-24T00:21:10.790Z,6.32
2023-03-24T00:23:38.027Z,4.95
2023-03-24T00:26:15.232Z,6.35
2023-03-24T00:28:48.752Z,5.50
2023-03-24T00:31:17.525Z,5.78
2023-03-24T00:33:50.699Z,6.82
2023-03-24T00:36:20.984Z,8.02
2023-03-24T00:38:48.492Z,7.30
2023-03-24T00:41:20.093Z,5.15
2023-03-24T00:43:49.759Z,7.68
2023-03-24T00:46:30.220Z,6.20
2023-03-24T00:49:06.780Z,6.65
2023-03-24T00:51:38.342Z,6.72
2023-03-24T00:54:07.895Z,7.00
2023-03-24T00:56:37.911Z,5.10
2023-03-24T00:59:05.202Z,5.63
2023-03-24T01:01:35.032Z,6.05
2023-03-24T01:04:03.562Z,5.25
2023-03-24T01:06:30.584Z,5.07
2023-03-24T01:08:57.474Z,5.82
2023-03-24T01:11:26.884Z,6.00
2023-03-24T01:13:54.745Z,4.35
2023-03-24T01:16:25.791Z,4.95
2023-03-24T01:18:53.102Z,5.03
2023-03-24T01:21:20.035Z,5.15
2023-03-24T01:23:47.516Z,6.50
2023-03-24T01:26:14.630Z,9.02
2023-03-24T01:28:43.620Z,5.28
2023-03-24T01:31:11.885Z,6.20
2023-03-24T01:33:39.191Z,6.13
2023-03-24T01:36:07.531Z,6.30
2023-03-24T01:38:35.288Z,5.32
2023-03-24T01:41:03.243Z,4.18
2023-03-24T01:43:33.322Z,5.75
2023-03-24T01:46:25.826Z,5.75
2023-03-24T01:49:02.508Z,5.43
2023-03-24T01:51:42.807Z,3.63
2023-03-24T01:55:08.537Z,4.03
2023-03-24T01:57:48.253Z,6.72
2023-03-24T02:00:18.967Z,5.70
2023-03-24T02:03:20.805Z,4.32
2023-03-24T02:05:57.577Z,5.82
2023-03-24T02:08:57.156Z,5.97
2023-03-24T02:11:30.648Z,6.88
2023-03-24T02:14:02.288Z,4.70
2023-03-24T02:17:18.273Z,4.32
2023-03-24T02:20:32.284Z,5.82
2023-03-24T02:23:57.761Z,2.72
2023-03-24T02:27:03.972Z,3.30
2023-03-24T02:30:11.193Z,3.72
2023-03-24T02:33:17.244Z,5.45
2023-03-24T02:36:28.391Z,1.73
2023-03-24T02:39:33.770Z,3.95
2023-03-24T02:42:51.090Z,2.20
2023-03-24T02:46:13.924Z,2.58
2023-03-24T02:49:10.396Z,2.65
2023-03-24T02:52:25.718Z,2.67
2023-03-24T02:55:19.207Z,3.17
2023-03-24T02:57:57.209Z,1.88
2023-03-24T03:00:59.255Z,5.47
2023-03-24T03:03:54.227Z,4.10
2023-03-24T03:06:32.693Z,6.82
2023-03-24T03:09:09.469Z,4.28
2023-03-24T03:11:39.436Z,7.63
2023-03-24T03:14:17.985Z,3.65
2023-03-24T03:17:02.453Z,6.60
2023-03-24T03:19:39.904Z,4.95
2023-03-24T03:22:33.222Z,8.15
2023-03-24T03:25:04.275Z,7.03
2023-03-24T03:27:38.968Z,10.00
2023-03-24T03:30:13.291Z,12.35
2023-03-24T03:32:54.067Z,6.70
2023-03-24T03:35:37.113Z,5.90
2023-03-24T03:38:34.756Z,6.28
2023-03-24T03:41:05.125Z,6.35
2023-03-24T03:43:35.555Z,10.50
2023-03-24T03:46:06.343Z,7.05
2023-03-24T03:48:37.750Z,5.75
2023-03-24T03:53:52.379Z,8.75
2023-03-24T03:56:24.082Z,6.63
2023-03-24T03:59:23.932Z,6.40
2023-03-24T04:01:51.212Z,5.80
2023-03-24T04:05:05.849Z,7.25
2023-03-24T04:08:18.422Z,5.72
2023-03-24T04:11:20.266Z,8.40
2023-03-24T04:14:25.326Z,5.63
2023-03-24T04:17:32.126Z,7.63
2023-03-24T04:20:14.873Z,7.00
2023-03-24T04:23:05.027Z,7.95
2023-03-24T04:26:06.113Z,7.43
2023-03-24T04:28:58.107Z,7.80
2023-03-24T04:31:39.900Z,11.35
2023-03-24T04:34:41.025Z,8.77
2023-03-24T04:37:27.538Z,9.90
2023-03-24T04:40:07.406Z,9.10
2023-03-24T04:42:52.480Z,16.05
2023-03-24T04:45:26.072Z,8.18
2023-03-24T04:48:20.197Z,12.20
2023-03-24T04:51:11.056Z,12.43
2023-03-24T04:53:58.314Z,14.27
2023-03-24T04:56:38.696Z,16.10
2023-03-24T04:59:26.102Z,17.10
2023-03-24T05:01:53.451Z,13.85
2023-03-24T05:04:30.452Z,12.55
2023-03-24T05:07:07.620Z,11.52
2023-03-24T05:09:34.477Z,16.73
2023-03-24T05:12:02.335Z,13.77
2023-03-24T05:14:33.899Z,12.63
2023-03-24T05:17:01.169Z,16.92
2023-03-24T05:19:28.939Z,14.38
2023-03-24T05:21:56.237Z,16.42
2023-03-24T05:24:23.641Z,17.45
2023-03-24T05:26:50.578Z,14.57
2023-03-24T05:29:19.776Z,18.23
2023-03-24T05:31:46.957Z,11.18
2023-03-24T05:34:18.320Z,12.32
2023-03-24T05:37:12.968Z,17.52
2023-03-24T05:39:40.317Z,18.30
2023-03-24T05:42:12.283Z,18.08
2023-03-24T05:44:39.163Z,15.30
2023-03-24T05:47:16.217Z,16.10
2023-03-24T05:49:43.833Z,17.25
2023-03-24T05:52:14.825Z,17.77
2023-03-24T05:54:43.295Z,20.00
2023-03-24T05:57:18.722Z,14.65
2023-03-24T06:00:10.424Z,13.20
2023-03-24T06:02:59.915Z,17.45
2023-03-24T06:05:45.912Z,18.20
2023-03-24T06:08:13.384Z,15.23
2023-03-24T06:10:41.094Z,19.85
2023-03-24T06:13:09.312Z,17.73
2023-03-24T06:15:39.592Z,15.65
2023-03-24T06:18:27.798Z,13.98
2023-03-24T06:20:57.078Z,17.02
2023-03-24T06:23:29.148Z,15.45
2023-03-24T06:26:11.544Z,14.70
2023-03-24T06:28:51.869Z,17.95
2023-03-24T06:31:21.531Z,16.40
2023-03-24T06:33:52.328Z,13.95
2023-03-24T06:36:19.727Z,16.10
2023-03-24T06:38:47.000Z,14.45
2023-03-24T06:41:18.097Z,14.88
2023-03-24T06:43:46.604Z,11.48
2023-03-24T06:46:13.743Z,14.30
2023-03-24T06:48:43.829Z,15.43
2023-03-24T06:51:10.768Z,20.15
2023-03-24T06:53:41.122Z,12.60
2023-03-24T06:56:08.314Z,14.98
2023-03-24T06:58:40.921Z,17.50
2023-03-24T07:01:11.408Z,13.30
2023-03-24T07:03:54.234Z,14.40
2023-03-24T07:06:50.594Z,15.52
2023-03-24T07:09:27.266Z,19.17
2023-03-24T07:11:54.171Z,9.32
2023-03-24T07:14:21.936Z,12.23
2023-03-24T07:16:49.553Z,16.70
2023-03-24T07:19:48.782Z,10.85
2023-03-24T07:22:36.817Z,18.65
2023-03-24T07:25:22.191Z,13.15
2023-03-24T07:28:01.901Z,11.43
2023-03-24T07:30:39.938Z,13.65
2023-03-24T07:33:10.845Z,13.80
2023-03-24T07:35:39.332Z,14.30
2023-03-24T07:38:07.854Z,15.52
2023-03-24T07:40:38.070Z,13.32
2023-03-24T07:43:06.542Z,14.88
2023-03-24T07:45:59.469Z,11.68
2023-03-24T07:48:28.869Z,12.90
2023-03-24T07:50:55.862Z,12.88
2023-03-24T07:53:48.882Z,14.73
2023-03-24T07:56:25.477Z,15.75
2023-03-24T07:58:57.298Z,14.00
2023-03-24T08:01:31.927Z,12.05
2023-03-24T08:04:03.402Z,15.73
2023-03-24T08:07:02.944Z,13.27
2023-03-24T08:09:30.001Z,11.75
2023-03-24T08:11:57.887Z,13.32
2023-03-24T08:14:26.372Z,16.20
2023-03-24T08:16:53.250Z,12.52
2023-03-24T08:19:20.034Z,13.70
2023-03-24T08:21:46.842Z,12.50
2023-03-24T08:24:13.773Z,9.73
2023-03-24T08:26:42.676Z,12.13
2023-03-24T08:29:09.497Z,14.35
2023-03-24T08:31:37.674Z,9.70
2023-03-24T08:34:06.551Z,13.38
2023-03-24T08:36:33.560Z,14.75
2023-03-24T08:39:01.356Z,13.85
2023-03-24T08:41:34.776Z,10.05
2023-03-24T08:44:07.134Z,11.10
2023-03-24T08:46:34.891Z,14.93
2023-03-24T08:49:02.813Z,10.20
2023-03-24T08:51:31.168Z,12.77
2023-03-24T08:53:58.339Z,11.70
2023-03-24T08:56:25.913Z,11.30
2023-03-24T08:58:53.735Z,11.15
2023-03-24T09:01:22.750Z,16.02
2023-03-24T09:03:50.411Z,14.50
2023-03-24T09:06:17.550Z,10.85
2023-03-24T09:08:46.025Z,13.77
2023-03-24T09:11:20.235Z,15.32
2023-03-24T09:13:48.944Z,13.73
2023-03-24T09:16:17.765Z,11.52
2023-03-24T09:18:45.519Z,13.23
2023-03-24T09:21:13.581Z,14.48
2023-03-24T09:23:40.748Z,8.80
2023-03-24T09:26:08.064Z,10.40
2023-03-24T09:28:35.339Z,12.05
2023-03-24T09:31:06.053Z,11.73
2023-03-24T09:33:34.782Z,10.63
2023-03-24T09:36:04.313Z,9.40
2023-03-24T09:38:31.336Z,10.70
2023-03-24T09:41:03.516Z,12.10
2023-03-24T09:43:55.637Z,6.85
2023-03-24T09:46:48.898Z,8.60
2023-03-24T09:49:25.160Z,8.25
2023-03-24T09:52:03.274Z,11.70
2023-03-24T09:54:57.453Z,10.23
2023-03-24T09:57:33.874Z,10.82
2023-03-24T10:00:00.797Z,9.52
2023-03-24T10:02:30.837Z,13.80
2023-03-24T10:04:57.713Z,9.77
2023-03-24T10:07:46.403Z,14.05
2023-03-24T10:10:42.205Z,7.78
2023-03-24T10:13:25.120Z,9.70
2023-03-24T10:16:27.643Z,10.50
2023-03-24T10:19:47.473Z,7.22
2023-03-24T10:22:48.355Z,11.98
2023-03-24T10:25:26.595Z,10.38
2023-03-24T10:28:16.946Z,9.27
2023-03-24T10:30:48.122Z,8.90
2023-03-24T10:33:15.910Z,9.60
2023-03-24T10:36:01.861Z,10.07
2023-03-24T10:38:28.901Z,15.02
2023-03-24T10:40:55.972Z,12.38
2023-03-24T10:43:28.121Z,9.10
2023-03-24T10:45:57.382Z,9.10
2023-03-24T10:48:52.571Z,9.80
2023-03-24T10:51:34.775Z,10.80
2023-03-24T10:54:20.569Z,9.77
2023-03-24T10:57:02.546Z,9.20
2023-03-24T10:59:47.415Z,8.40
2023-03-24T11:02:33.776Z,11.98
2023-03-24T11:05:20.361Z,12.07
2023-03-24T11:07:50.498Z,7.80
2023-03-24T11:10:25.504Z,12.43
2023-03-24T11:12:55.535Z,6.80
2023-03-24T11:15:37.220Z,10.20
2023-03-24T11:18:15.504Z,9.85
2023-03-24T11:20:53.419Z,10.63
2023-03-24T11:23:30.204Z,8.55
2023-03-24T11:26:17.224Z,14.05
2023-03-24T11:28:48.625Z,9.23
2023-03-24T11:31:30.419Z,9.27
2023-03-24T11:34:08.436Z,8.93
2023-03-24T11:36:45.297Z,11.05
2023-03-24T11:39:15.929Z,6.40
2023-03-24T11:41:53.398Z,7.47
2023-03-24T11:44:25.585Z,8.90
2023-03-24T11:47:00.492Z,10.02
2023-03-24T11:49:33.032Z,8.20
2023-03-24T11:52:00.843Z,8.18
2023-03-24T11:54:35.329Z,8.18
2023-03-24T11:57:13.530Z,7.13
2023-03-24T11:59:58.637Z,8.25
2023-03-24T12:02:54.408Z,8.60
2023-03-24T12:05:44.777Z,8.15
2023-03-24T12:08:22.105Z,10.18
2023-03-24T12:11:18.113Z,13.60
2023-03-24T12:13:50.472Z,9.55
2023-03-24T12:16:26.298Z,5.53
2023-03-24T12:19:32.567Z,6.68
2023-03-24T12:22:38.535Z,6.55
2023-03-24T12:25:29.843Z,5.60
2023-03-24T12:28:11.491Z,7.68
2023-03-24T12:31:27.059Z,8.00
2023-03-24T12:34:39.069Z,5.32
2023-03-24T12:37:47.867Z,8.05
2023-03-24T12:40:38.894Z,6.78
2023-03-24T12:43:41.070Z,8.05
2023-03-24T12:47:04.066Z,7.22
2023-03-24T12:49:41.014Z,5.75
2023-03-24T12:52:30.921Z,6.82
2023-03-24T12:55:06.464Z,7.03
2023-03-24T12:58:00.692Z,6.60
2023-03-24T13:00:36.230Z,4.63
2023-03-24T13:03:12.920Z,8.50
2023-03-24T13:05:53.357Z,6.35
2023-03-24T13:08:29.274Z,7.25
2023-03-24T13:11:07.948Z,8.15
2023-03-24T13:13:44.190Z,9.77
2023-03-24T13:16:22.022Z,8.00
2023-03-24T13:18:59.834Z,6.97
2023-03-24T13:21:28.627Z,11.43
2023-03-24T13:24:08.741Z,8.45
2023-03-24T13:26:50.121Z,7.43
2023-03-24T13:29:38.497Z,6.13
2023-03-24T13:32:21.432Z,9.00
2023-03-24T13:35:12.340Z,10.27
2023-03-24T13:37:51.888Z,9.75
2023-03-24T13:40:27.687Z,14.52
2023-03-24T13:43:06.782Z,10.65
2023-03-24T13:45:52.566Z,9.85
2023-03-24T13:48:37.590Z,8.95
2023-03-24T13:51:34.976Z,7.25
2023-03-24T13:54:16.393Z,7.78
2023-03-24T13:57:07.487Z,10.50
2023-03-24T14:00:17.712Z,8.57
2023-03-24T14:02:56.411Z,7.97
2023-03-24T14:05:23.890Z,5.13
2023-03-24T14:08:00.886Z,8.20
2023-03-24T14:10:38.934Z,6.97
2023-03-24T14:13:20.856Z,7.38
2023-03-24T14:15:58.095Z,6.30
2023-03-24T14:18:25.621Z,6.93
2023-03-24T14:21:08.638Z,4.63
2023-03-24T14:23:45.970Z,5.35
2023-03-24T14:26:34.286Z,5.97
2023-03-24T14:29:01.505Z,7.35
2023-03-24T14:31:38.804Z,5.68
2023-03-24T14:34:25.355Z,7.00
2023-03-24T14:37:03.586Z,4.97
2023-03-24T14:39:41.602Z,4.85
2023-03-24T14:42:27.155Z,6.75
2023-03-24T14:44:57.161Z,6.95
2023-03-24T14:47:33.658Z,6.95
2023-03-24T14:50:13.074Z,4.60
2023-03-24T14:52:54.833Z,5.68
2023-03-24T14:55:22.806Z,9.75
2023-03-24T14:58:12.948Z,5.35
2023-03-24T15:01:04.368Z,8.10
2023-03-24T15:04:05.028Z,8.52
2023-03-24T15:06:33.171Z,9.18
2023-03-24T15:09:07.301Z,6.20
2023-03-24T15:11:38.432Z,7.25
2023-03-24T15:14:07.085Z,6.03
2023-03-24T15:16:37.873Z,6.05
2023-03-24T15:19:22.526Z,6.97
2023-03-24T15:22:02.972Z,5.15
2023-03-24T15:24:36.472Z,11.48
2023-03-24T15:27:06.406Z,11.55
2023-03-24T15:29:39.802Z,6.07
2023-03-24T15:32:12.450Z,8.88
2023-03-24T15:34:50.606Z,7.47
2023-03-24T15:37:35.442Z,8.38
2023-03-24T15:40:15.199Z,11.07
2023-03-24T15:42:45.933Z,10.15
2023-03-24T15:45:43.652Z,6.55
2023-03-24T15:48:18.448Z,8.20
2023-03-24T15:51:06.779Z,8.38
2023-03-24T15:53:33.680Z,7.53
2023-03-24T15:56:20.502Z,7.13
2023-03-24T15:58:54.915Z,12.40
2023-03-24T16:01:36.470Z,6.57
2023-03-24T16:04:14.260Z,7.43
2023-03-24T16:06:48.494Z,9.48
2023-03-24T16:09:21.631Z,7.03
2023-03-24T16:11:49.620Z,9.90
2023-03-24T16:14:32.343Z,7.60
2023-03-24T16:17:05.074Z,8.35
2023-03-24T16:19:32.778Z,10.18
2023-03-24T16:21:59.885Z,10.73
2023-03-24T16:24:26.762Z,11.70
2023-03-24T16:26:53.602Z,5.80
2023-03-24T16:29:24.653Z,9.50
2023-03-24T16:31:56.359Z,8.32
2023-03-24T16:34:24.382Z,12.55
2023-03-24T16:36:54.466Z,7.95
2023-03-24T16:39:27.712Z,9.30
2023-03-24T16:41:55.382Z,10.88
2023-03-24T16:44:23.210Z,12.85
2023-03-24T16:46:53.737Z,9.80
2023-03-24T16:49:23.293Z,10.00
2023-03-24T16:51:50.824Z,13.57
2023-03-24T16:54:17.744Z,10.18
2023-03-24T16:56:44.690Z,10.48
2023-03-24T16:59:14.800Z,8.48
2023-03-24T17:01:45.727Z,11.80
2023-03-24T17:04:19.181Z,9.75
2023-03-24T17:06:52.663Z,8.20
2023-03-24T17:09:20.698Z,9.40
2023-03-24T17:11:52.966Z,12.20
2023-03-24T17:14:20.470Z,8.48
2023-03-24T17:16:49.115Z,10.93
2023-03-24T17:19:21.289Z,8.82
2023-03-24T17:22:08.530Z,9.88
2023-03-24T17:24:36.697Z,5.82
2023-03-24T17:27:09.910Z,10.00
2023-03-24T17:29:36.739Z,12.40
2023-03-24T17:32:03.763Z,8.95
2023-03-24T17:34:30.598Z,7.28
2023-03-24T17:36:57.569Z,10.30
2023-03-24T17:39:24.399Z,11.23
2023-03-24T17:41:51.254Z,9.32
2023-03-24T17:44:18.112Z,7.75
2023-03-24T17:46:44.995Z,11.13
2023-03-24T17:49:11.894Z,9.00
2023-03-24T17:51:38.850Z,10.55
2023-03-24T17:54:06.245Z,10.52
2023-03-24T17:56:33.141Z,7.18
2023-03-24T17:58:59.992Z,9.90
2023-03-24T18:01:29.437Z,7.60
2023-03-24T18:03:57.774Z,11.10
2023-03-24T18:06:24.896Z,8.05
2023-03-24T18:08:52.299Z,8.68
2023-03-24T18:11:19.641Z,8.63
2023-03-24T18:13:46.728Z,10.27
2023-03-24T18:16:21.546Z,10.60
2023-03-24T18:18:50.901Z,10.43
2023-03-24T18:21:19.025Z,10.10
2023-03-24T18:23:46.508Z,10.60
2023-03-24T18:26:15.672Z,10.13
2023-03-24T18:28:45.329Z,12.05
2023-03-24T18:31:21.380Z,12.82
2023-03-24T18:33:50.626Z,14.57
2023-03-24T18:36:26.944Z,10.55
2023-03-24T18:39:01.084Z,9.63
2023-03-24T18:41:29.856Z,7.28
2023-03-24T18:43:59.143Z,8.80
2023-03-24T18:46:27.352Z,12.10
2023-03-24T18:48:55.241Z,14.95
2023-03-24T18:51:27.554Z,16.42
2023-03-24T18:53:54.759Z,11.70
2023-03-24T18:56:23.364Z,8.13
2023-03-24T18:58:51.611Z,9.43
2023-03-24T19:01:22.627Z,11.57
2023-03-24T19:03:52.199Z,13.93
2023-03-24T19:06:20.279Z,9.30
2023-03-24T19:08:52.930Z,8.02
2023-03-24T19:11:20.037Z,11.60
2023-03-24T19:13:49.714Z,8.43
2023-03-24T19:16:19.148Z,9.95
2023-03-24T19:18:48.171Z,12.30
2023-03-24T19:21:15.414Z,10.98
2023-03-24T19:23:44.274Z,9.18
2023-03-24T19:26:11.094Z,10.18
2023-03-24T19:28:37.926Z,8.18
2023-03-24T19:31:12.400Z,10.77
2023-03-24T19:33:39.344Z,8.57
2023-03-24T19:36:08.789Z,8.73
2023-03-24T19:38:38.210Z,8.30
2023-03-24T19:41:09.057Z,9.30
2023-03-24T19:43:36.766Z,12.05
2023-03-24T19:46:06.056Z,8.32
2023-03-24T19:48:34.186Z,7.97
2023-03-24T19:51:01.465Z,14.02
2023-03-24T19:53:28.284Z,8.35
2023-03-24T19:55:59.963Z,6.65
2023-03-24T19:58:26.895Z,7.93
2023-03-24T20:00:53.709Z,6.18
2023-03-24T20:03:20.906Z,5.47
2023-03-24T20:05:48.891Z,7.40
2023-03-24T20:08:16.280Z,9.23
2023-03-24T20:10:43.034Z,7.65
2023-03-24T20:13:09.956Z,7.85
2023-03-24T20:15:37.212Z,6.30
2023-03-24T20:18:04.384Z,4.28
2023-03-24T20:20:31.589Z,6.05
2023-03-24T20:22:58.407Z,3.88
2023-03-24T20:25:25.305Z,7.68
2023-03-24T20:27:52.158Z,7.07
2023-03-24T20:30:20.573Z,6.45
2023-03-24T20:32:48.153Z,6.93
2023-03-24T20:35:15.873Z,5.32
2023-03-24T20:37:43.042Z,6.88
2023-03-24T20:40:10.552Z,5.00
2023-03-24T20:42:38.513Z,9.98
2023-03-24T20:45:08.106Z,8.18
2023-03-24T20:47:36.507Z,7.18
2023-03-24T20:50:06.035Z,5.07
2023-03-24T20:52:33.441Z,9.48
2023-03-24T20:55:01.594Z,9.55
2023-03-24T20:57:30.099Z,8.77
2023-03-24T20:59:57.018Z,10.43
2023-03-24T21:02:25.193Z,5.93
2023-03-24T21:04:52.243Z,10.73
2023-03-24T21:07:19.067Z,9.50
2023-03-24T21:09:46.212Z,4.60
2023-03-24T21:12:12.970Z,5.15
2023-03-24T21:14:41.319Z,7.50
2023-03-24T21:17:08.198Z,8.93
2023-03-24T21:19:37.126Z,7.75
2023-03-24T21:22:03.948Z,6.20
2023-03-24T21:24:31.193Z,9.20
2023-03-24T21:26:57.996Z,8.40
2023-03-24T21:29:26.442Z,7.30
2023-03-24T21:31:53.419Z,7.45
2023-03-24T21:34:20.278Z,7.18
2023-03-24T21:36:49.269Z,7.75
2023-03-24T21:39:16.531Z,8.30
2023-03-24T21:41:43.316Z,10.15
2023-03-24T21:44:10.396Z,10.18
2023-03-24T21:46:37.424Z,10.60
2023-03-24T21:49:05.509Z,9.75
2023-03-24T21:51:34.422Z,6.65
2023-03-24T21:54:06.089Z,7.65
2023-03-24T21:56:34.601Z,10.48
2023-03-24T21:59:01.966Z,11.90
2023-03-24T22:01:29.147Z,6.70
2023-03-24T22:03:58.472Z,11.70
2023-03-24T22:06:28.982Z,7.47
2023-03-24T22:08:58.257Z,7.68
2023-03-24T22:11:25.712Z,7.88
2023-03-24T22:13:52.829Z,7.55
2023-03-24T22:16:19.725Z,8.88
2023-03-24T22:18:47.385Z,7.43
2023-03-24T22:21:14.489Z,7.70
2023-03-24T22:23:42.628Z,10.25
2023-03-24T22:26:16.726Z,13.20
2023-03-24T22:28:44.481Z,9.45
2023-03-24T22:31:16.025Z,8.75
2023-03-24T22:33:44.393Z,10.43
2023-03-24T22:36:11.972Z,9.75
2023-03-24T22:38:38.924Z,9.80
2023-03-24T22:41:10.055Z,9.70
2023-03-24T22:43:39.361Z,9.90
2023-03-24T22:46:06.970Z,9.80
2023-03-24T22:48:34.280Z,10.77
2023-03-24T22:51:01.062Z,7.07
2023-03-24T22:53:27.953Z,6.15
2023-03-24T22:55:54.761Z,8.98
2023-03-24T22:58:22.960Z,9.70
2023-03-24T23:00:54.828Z,6.97
2023-03-24T23:03:22.111Z,3.85
2023-03-24T23:05:49.106Z,7.65
2023-03-24T23:08:16.403Z,7.53
2023-03-24T23:10:44.809Z,7.45
2023-03-24T23:13:13.151Z,8.00
2023-03-24T23:15:42.288Z,9.48
2023-03-24T23:18:09.284Z,10.77
2023-03-24T23:20:36.388Z,8.38
2023-03-24T23:23:05.901Z,8.57
2023-03-24T23:25:39.933Z,9.95
2023-03-24T23:28:07.013Z,8.07
2023-03-24T23:30:33.826Z,8.02
2023-03-24T23:33:01.930Z,6.18
2023-03-24T23:35:28.729Z,10.32
2023-03-24T23:37:55.467Z,8.85
2023-03-24T23:40:22.575Z,15.13
2023-03-24T23:42:50.516Z,11.98
2023-03-24T23:45:20.674Z,8.57
2023-03-24T23:47:51.131Z,11.60
2023-03-24T23:50:20.991Z,9.30
2023-03-24T23:52:48.457Z,9.88
2023-03-24T23:55:17.855Z,9.32
2023-03-24T23:57:45.318Z,9.38
